Main page
METAR-TAF:

METAR-TAF

Airports :

Donegal Airport

Donegal, Ireland

latitude: 55-02-39N, longitude: 8-20-28W, elevation: 9 m

Current weather observation

The report was made 2 hours and 11 minutes ago, at 20:00 UTC
Wind 18 kt from the North/Northwest
Temperature 6°C
Humidity 65%
Pressure 998 hPa
Visibility 10 km or more
Few clouds at a height of 3400 ft
Broken clouds at a height of 4600 ft

METAR: EIDL 222000Z 33018KT 9999 FEW034 BKN046 06/M00 Q0998

Time: 22:11 (22:11 UTC)

Forecast

The report was made 5 hours and 11 minutes ago, at 17:00 UTC
Forecast valid from 22 at 18 UTC to 22 at 21 UTC
Wind 18 kt from the West/Northwest
Visibility 10 km or more
Scattered clouds at a height of 2000 ft
Broken clouds at a height of 3000 ft
Temporary
from 22 at 18 UTC to 22 at 20 UTC
Scattered clouds at a height of 1800 ft, Cumulonimbus.
light rain showers

TAF: EIDL 221700Z 2218/2221 30018KT 9999 SCT020 BKN030 TEMPO 2218/2220 -SHRA SCT018CB

Weather observations and forecasts of more than 4000 airports (METAR and TAF reports).

The available stations are represented by yellow and red dots on the map.

Hover mouse over dot to see the name of the station.

Then click to see weather observations and forecasts.

To change the map : click on the green buttons with a black cross to zoom in, on the green button with a dash to zoom out, or on the green arrows for adjacent maps.


METAR-TAF: